Clarkson, New York
Current Conditions -  °F | °C
As of 2:54 PM on Friday 24 Oct 2014 (Local Time) from KROC Reporting Station
Scattered Clouds Scattered Clouds  
Wind Chill: 59°   Ceiling: Unl
Heat Index: 59°   Visibility: 10mi
Dew Point: 38°   Wind: 13mph
Humidity: 46%   Direction: 270°W
Pressure: 29.93"   Gusts: 20mph
Location:  43.23°N, 77.93°W
Report Text: KROC 241854Z 27011G17KT 10SM SCT180 15/03 A2993 RMK AO2 SLP139 T01500033
Loading
Personal Weather Stations






























Interactive Weather Map
Tropical Storm Tracking
New forecast layout! Learn more

10-Day Weather Forecast

Advertisements
Track Severe Weather on mobile